.
WxDataArchive / Data Records for 2006-02-26
2006-02-25 February 2006 2006-02-27

Data Records for Sunday, 26 February 2006

Time	Temp	Chill	HIndex	Humid	Dewpt	 Wind 	HiWind	WindDir	Rain 	Barom 
-----	----	-----	------	-----	-----	------	------	-------	-----	----- 
00:00	22.4	22.4	22.4	55	8.7	0	2	270	0.00	30.445 
00:05	22.2	22.2	22.2	55	8.5	0	2	292	0.00	30.445 
00:10	22.1	22.1	22.1	55	8.4	0	2	292	0.00	30.445 
00:15	21.9	21.9	21.9	56	8.6	0	2	292	0.00	30.441 
00:20	21.8	21.8	21.8	56	8.5	0	2	315	0.00	30.441 
00:25	21.6	21.6	21.6	56	8.4	0	1	315	0.00	30.441 
00:30	21.6	21.6	21.6	57	8.8	0	2	315	0.00	30.443 
00:35	21.4	21.4	21.4	57	8.6	0	3	315	0.00	30.443 
00:40	21.4	21.4	21.4	57	8.6	0	1	315	0.00	30.443 
00:45	21.3	21.3	21.3	58	8.9	0	1	315	0.00	30.445 
00:50	21.1	21.1	21.1	58	8.7	0	1	315	0.00	30.445 
00:55	20.8	20.8	20.8	58	8.4	0	1	315	0.00	30.445 
01:00	20.6	20.6	20.6	59	8.6	0	1	315	0.00	30.446 
01:05	20.5	20.5	20.5	59	8.5	0	1	315	0.00	30.446 
01:10	20.5	20.5	20.5	60	8.9	0	0	---	0.00	30.446 
01:15	20.3	20.3	20.3	60	8.7	0	1	315	0.00	30.446 
01:20	20.2	20.2	20.2	61	8.9	0	1	315	0.00	30.446 
01:25	20.2	20.2	20.2	61	8.9	0	1	315	0.00	30.446 
01:30	20.2	20.2	20.2	61	8.9	0	1	315	0.00	30.448 
01:35	20.0	20.0	20.0	62	9.1	0	2	315	0.00	30.448 
01:40	19.9	19.9	19.9	62	9.0	0	0	---	0.00	30.448 
01:45	19.7	19.7	19.7	62	8.8	0	1	315	0.00	30.447 
01:50	19.5	19.5	19.5	63	9.0	0	0	---	0.00	30.447 
01:55	19.5	19.5	19.5	63	9.0	0	1	315	0.00	30.447 
02:00	19.5	19.5	19.5	63	9.0	0	1	315	0.00	30.447 
02:05	19.4	19.4	19.4	63	8.9	0	1	315	0.00	30.447 
02:10	19.2	19.2	19.2	64	9.0	0	0	---	0.00	30.447 
02:15	19.1	19.1	19.1	64	9.0	0	0	---	0.00	30.449 
02:20	18.9	18.9	18.9	64	8.8	0	0	---	0.00	30.449 
02:25	18.8	18.8	18.8	65	9.0	0	0	---	0.00	30.449 
02:30	18.8	18.8	18.8	65	9.0	0	1	315	0.00	30.458 
02:35	18.9	18.9	18.9	65	9.1	0	1	315	0.00	30.458 
02:40	18.9	18.9	18.9	65	9.1	0	0	---	0.00	30.458 
02:45	18.9	18.9	18.9	65	9.1	0	1	315	0.00	30.452 
02:50	18.9	18.9	18.9	65	9.1	0	0	---	0.00	30.452 
02:55	18.8	18.8	18.8	65	9.0	0	1	315	0.00	30.452 
03:00	18.9	18.9	18.9	65	9.1	0	1	315	0.00	30.450 
03:05	19.1	19.1	19.1	65	9.3	0	1	315	0.00	30.450 
03:10	19.1	19.1	19.1	65	9.3	0	0	---	0.00	30.450 
03:15	19.1	19.1	19.1	65	9.3	0	1	315	0.00	30.455 
03:20	19.1	19.1	19.1	64	9.0	0	1	315	0.00	30.455 
03:25	19.1	19.1	19.1	65	9.3	0	1	315	0.00	30.455 
03:30	18.9	18.9	18.9	65	9.1	0	1	315	0.00	30.453 
03:35	18.8	18.8	18.8	65	9.0	0	1	315	0.00	30.453 
03:40	18.8	18.8	18.8	65	9.0	0	1	315	0.00	30.453 
03:45	18.9	18.9	18.9	65	9.1	0	1	315	0.00	30.451 
03:50	18.9	18.9	18.9	65	9.1	0	1	315	0.00	30.451 
03:55	18.9	18.9	18.9	65	9.1	0	1	315	0.00	30.451 
04:00	18.9	18.9	18.9	65	9.1	0	1	315	0.00	30.454 
04:05	18.8	18.8	18.8	65	9.0	0	1	315	0.00	30.454 
04:10	18.8	18.8	18.8	65	9.0	0	1	315	0.00	30.454 
04:15	18.6	18.6	18.6	65	8.8	0	1	315	0.00	30.451 
04:20	18.4	18.4	18.4	65	8.6	0	1	315	0.00	30.451 
04:25	18.4	18.4	18.4	65	8.6	0	1	315	0.00	30.451 
04:30	18.4	18.4	18.4	65	8.6	0	1	315	0.00	30.453 
04:35	18.4	18.4	18.4	65	8.6	0	2	0	0.00	30.453 
04:40	18.4	18.4	18.4	65	8.6	0	2	0	0.00	30.453 
04:45	18.4	18.4	18.4	65	8.6	0	1	0	0.00	30.454 
04:50	18.4	18.4	18.4	65	8.6	0	1	0	0.00	30.454 
04:55	18.3	18.3	18.3	65	8.5	0	1	0	0.00	30.454 
05:00	18.1	18.1	18.1	65	8.3	0	1	0	0.00	30.453 
05:05	18.0	18.0	18.0	65	8.3	0	2	315	0.00	30.453 
05:10	18.1	18.1	18.1	64	8.0	0	2	338	0.00	30.453 
05:15	18.1	18.1	18.1	64	8.0	0	1	338	0.00	30.457 
05:20	18.0	18.0	18.0	64	7.9	0	2	22	0.00	30.457 
05:25	18.0	18.0	18.0	64	7.9	0	2	22	0.00	30.457 
05:30	18.0	18.0	18.0	64	7.9	0	1	338	0.00	30.460 
05:35	18.0	18.0	18.0	64	7.9	0	2	338	0.00	30.460 
05:40	17.7	17.7	17.7	65	8.0	0	1	338	0.00	30.460 
05:45	17.5	17.5	17.5	65	7.8	0	1	338	0.00	30.463 
05:50	17.3	17.3	17.3	65	7.6	0	1	338	0.00	30.463 
05:55	17.2	17.2	17.2	65	7.5	0	1	338	0.00	30.463 
06:00	17.2	17.2	17.2	65	7.5	0	1	338	0.00	30.469 
06:05	17.0	17.0	17.0	65	7.3	0	1	338	0.00	30.469 
06:10	16.9	16.9	16.9	65	7.2	0	1	338	0.00	30.469 
06:15	16.9	16.9	16.9	65	7.2	0	1	338	0.00	30.478 
06:20	16.9	16.9	16.9	64	6.9	0	1	338	0.00	30.478 
06:25	16.7	16.7	16.7	64	6.7	0	0	---	0.00	30.478 
06:30	16.4	16.4	16.4	65	6.7	0	0	---	0.00	30.483 
06:35	16.2	16.2	16.2	65	6.5	0	0	---	0.00	30.483 
06:40	15.9	15.9	15.9	65	6.2	0	0	---	0.00	30.483 
06:45	15.9	15.9	15.9	65	6.2	0	0	---	0.00	30.490 
06:50	15.7	15.7	15.7	65	6.1	0	0	---	0.00	30.490 
06:55	15.6	15.6	15.6	65	6.0	0	0	---	0.00	30.490 
07:00	15.4	15.4	15.4	66	6.1	0	0	---	0.00	30.494 
07:05	15.2	15.2	15.2	66	5.9	0	0	---	0.00	30.494 
07:10	15.1	15.1	15.1	66	5.8	0	0	---	0.00	30.494 
07:15	15.1	15.1	15.1	66	5.8	0	0	---	0.00	30.496 
07:20	14.9	14.9	14.9	67	6.0	0	0	---	0.00	30.496 
07:25	14.8	14.8	14.8	67	5.9	0	0	---	0.00	30.496 
07:30	14.6	14.6	14.6	68	6.0	0	0	---	0.00	30.498 
07:35	14.6	14.6	14.6	68	6.0	0	0	---	0.00	30.498 
07:40	14.6	14.6	14.6	69	6.3	0	0	---	0.00	30.498 
07:45	14.8	14.8	14.8	69	6.5	0	0	---	0.00	30.507 
07:50	15.2	15.2	15.2	68	6.6	0	0	---	0.00	30.507 
07:55	15.6	15.6	15.6	68	7.0	0	1	338	0.00	30.507 
08:00	16.1	16.1	16.1	67	7.1	0	1	338	0.00	30.510 
08:05	16.4	16.4	16.4	65	6.7	0	1	338	0.00	30.510 
08:10	17.0	17.0	17.0	63	6.6	1	2	315	0.00	30.510 
08:15	17.5	17.5	17.5	62	6.7	0	3	315	0.00	30.520 
08:20	18.0	18.0	18.0	61	6.9	1	3	22	0.00	30.520 
08:25	18.3	18.3	18.3	60	6.8	0	2	22	0.00	30.520 
08:30	18.6	18.6	18.6	59	6.7	1	3	0	0.00	30.522 
08:35	18.9	18.9	18.9	57	6.2	1	3	0	0.00	30.522 
08:40	19.1	19.1	19.1	59	7.2	0	3	0	0.00	30.522 
08:45	19.7	19.7	19.7	59	7.7	0	2	0	0.00	30.524 
08:50	20.2	20.2	20.2	58	7.8	0	2	0	0.00	30.524 
08:55	20.3	20.3	20.3	57	7.5	1	3	0	0.00	30.524 
09:00	20.3	20.3	20.3	56	7.1	1	5	0	0.00	30.530 
09:05	20.5	20.5	20.5	55	6.9	1	3	315	0.00	30.530 
09:10	20.8	20.8	20.8	55	7.2	1	3	315	0.00	30.530 
09:15	21.3	21.3	21.3	56	8.1	1	4	135	0.00	30.535 
09:20	21.6	21.6	21.6	54	7.6	1	4	0	0.00	30.535 
09:25	21.6	21.6	21.6	53	7.1	1	4	22	0.00	30.535 
09:30	21.8	21.8	21.8	54	7.7	1	4	292	0.00	30.534 
09:35	22.2	22.2	22.2	53	7.7	1	5	292	0.00	30.534 
09:40	22.4	22.4	22.4	52	7.5	2	4	270	0.00	30.534 
09:45	22.4	22.4	22.4	52	7.5	2	5	0	0.00	30.535 
09:50	22.5	22.5	22.5	50	6.7	1	3	338	0.00	30.535 
09:55	22.7	22.7	22.7	48	6.0	2	5	22	0.00	30.535 
10:00	22.7	22.7	22.7	49	6.4	2	5	22	0.00	30.534 
10:05	22.9	22.9	22.9	48	6.2	2	4	338	0.00	30.534 
10:10	23.3	23.3	23.3	49	7.0	2	5	270	0.00	30.534 
10:15	23.8	23.8	23.8	47	6.5	1	3	22	0.00	30.527 
10:20	23.9	23.9	23.9	45	5.7	2	4	22	0.00	30.527 
10:25	24.1	24.1	24.1	45	5.9	2	4	270	0.00	30.527 
10:30	23.9	23.9	23.9	45	5.7	2	5	22	0.00	30.522 
10:35	24.1	24.1	24.1	44	5.4	2	4	0	0.00	30.522 
10:40	24.7	24.7	24.7	42	4.9	2	5	0	0.00	30.522 
10:45	24.5	24.5	24.5	40	3.7	3	5	270	0.00	30.519 
10:50	24.5	24.5	24.5	43	5.2	1	4	22	0.00	30.519 
10:55	24.8	24.8	24.8	40	3.9	2	5	270	0.00	30.519 
11:00	24.8	24.8	24.8	39	3.4	2	5	338	0.00	30.515 
11:05	25.1	25.1	25.1	41	4.8	2	5	22	0.00	30.515 
11:10	25.4	25.4	25.4	41	5.0	1	4	315	0.00	30.515 
11:15	25.6	25.6	25.6	40	4.7	3	6	315	0.00	30.512 
11:20	25.4	25.4	25.4	39	3.9	2	5	338	0.00	30.512 
11:25	25.4	25.4	25.4	41	5.0	2	5	270	0.00	30.512 
11:30	25.8	25.8	25.8	39	4.3	2	5	338	0.00	30.503 
11:35	26.0	26.0	26.0	41	5.6	2	6	22	0.00	30.503 
11:40	26.1	26.1	26.1	40	5.1	2	5	292	0.00	30.503 
11:45	26.4	26.4	26.4	39	4.8	2	5	22	0.00	30.499 
11:50	26.7	26.7	26.7	39	5.1	2	4	292	0.00	30.499 
11:55	26.9	26.9	26.9	39	5.3	2	4	338	0.00	30.499 
12:00	26.7	26.7	26.7	40	5.7	2	7	315	0.00	30.490 
12:05	27.2	27.2	27.2	40	6.1	2	7	248	0.00	30.490 
12:10	27.5	27.5	27.5	41	6.9	2	5	270	0.00	30.490 
12:15	27.8	27.8	27.8	40	6.7	2	5	270	0.00	30.486 
12:20	27.8	27.8	27.8	42	7.7	2	4	45	0.00	30.486 
12:25	27.8	27.8	27.8	41	7.2	2	7	338	0.00	30.486 
12:30	27.9	27.9	27.9	41	7.3	2	4	270	0.00	30.472 
12:35	28.1	28.1	28.1	38	5.8	3	7	270	0.00	30.472 
12:40	28.1	28.1	28.1	39	6.4	2	4	292	0.00	30.472 
12:45	28.1	28.1	28.1	39	6.4	2	4	292	0.00	30.469 
12:50	28.1	28.1	28.1	40	6.9	2	5	292	0.00	30.469 
12:55	28.2	28.2	28.2	39	6.5	2	4	338	0.00	30.469 
13:00	28.2	28.2	28.2	37	5.3	2	6	270	0.00	30.457 
13:05	28.2	28.2	28.2	40	7.0	2	6	0	0.00	30.457 
13:10	28.4	28.4	28.4	40	7.2	2	6	338	0.00	30.457 
13:15	28.7	28.7	28.7	38	6.3	3	7	292	0.00	30.454 
13:20	28.8	28.8	28.8	38	6.4	3	7	248	0.00	30.454 
13:25	29.1	29.1	29.1	43	9.4	2	5	248	0.00	30.454 
13:30	29.4	29.4	29.4	39	7.5	2	7	315	0.00	30.441 
13:35	29.7	29.7	29.7	39	7.8	3	7	292	0.00	30.441 
13:40	29.7	29.7	29.7	41	8.9	3	7	270	0.00	30.441 
13:45	30.1	30.1	30.1	38	7.6	3	7	270	0.00	30.436 
13:50	29.7	29.7	29.7	39	7.8	3	5	315	0.00	30.436 
13:55	29.5	29.5	29.5	41	8.7	2	5	338	0.00	30.436 
14:00	29.7	29.7	29.7	40	8.4	2	5	270	0.00	30.427 
14:05	30.0	30.0	30.0	36	6.3	2	6	270	0.00	30.427 
14:10	30.3	30.3	30.3	38	7.8	2	6	292	0.00	30.427 
14:15	29.8	29.8	29.8	39	7.9	3	5	315	0.00	30.423 
14:20	30.1	30.1	30.1	39	8.2	2	5	292	0.00	30.423 
14:25	30.7	30.7	30.7	39	8.7	3	7	270	0.00	30.423 
14:30	31.0	31.0	31.0	38	8.4	3	9	270	0.00	30.411 
14:35	31.2	31.2	31.2	38	8.6	2	4	270	0.00	30.411 
14:40	31.6	31.6	31.6	39	9.5	2	4	315	0.00	30.411 
14:45	31.2	31.2	31.2	39	9.2	3	11	248	0.00	30.401 
14:50	30.7	30.7	30.7	38	8.1	3	9	292	0.00	30.401 
14:55	30.0	30.0	30.0	38	7.5	3	10	270	0.00	30.401 
15:00	29.7	29.7	29.7	38	7.2	3	6	315	0.00	30.400 
15:05	30.0	30.0	30.0	37	6.9	3	9	270	0.00	30.400 
15:10	29.7	29.7	29.7	39	7.8	2	6	270	0.00	30.400 
15:15	30.0	30.0	30.0	40	8.6	2	5	270	0.00	30.396 
15:20	30.9	30.9	30.9	38	8.3	2	6	270	0.00	30.396 
15:25	30.7	30.7	30.7	38	8.1	3	6	292	0.00	30.396 
15:30	30.6	30.6	30.6	39	8.6	2	5	338	0.00	30.385 
15:35	30.7	30.7	30.7	38	8.1	2	6	315	0.00	30.385 
15:40	30.9	30.9	30.9	38	8.3	2	8	270	0.00	30.385 
15:45	30.9	30.9	30.9	37	7.7	2	6	270	0.00	30.380 
15:50	30.9	30.9	30.9	37	7.7	2	5	270	0.00	30.380 
15:55	30.6	30.6	30.6	39	8.6	1	2	338	0.00	30.380 
16:00	30.9	30.9	30.9	37	7.7	2	6	315	0.00	30.373 
16:05	31.2	31.2	31.2	39	9.2	3	6	270	0.00	30.373 
16:10	30.6	30.6	30.6	37	7.5	3	9	315	0.00	30.373 
16:15	30.6	30.6	30.6	37	7.5	3	7	270	0.00	30.367 
16:20	30.3	30.3	30.3	37	7.2	3	6	292	0.00	30.367 
16:25	30.4	30.4	30.4	38	7.9	3	7	270	0.00	30.367 
16:30	30.6	30.6	30.6	38	8.0	2	4	270	0.00	30.362 
16:35	30.3	30.3	30.3	37	7.2	3	5	292	0.00	30.362 
16:40	30.6	30.6	30.6	38	8.0	2	6	248	0.00	30.362 
16:45	30.6	30.6	30.6	37	7.5	2	5	270	0.00	30.360 
16:50	30.3	30.3	30.3	38	7.8	2	4	338	0.00	30.360 
16:55	30.3	30.3	30.3	38	7.8	2	4	270	0.00	30.360 
17:00	30.3	30.3	30.3	37	7.2	2	5	292	0.00	30.350 
17:05	30.4	30.4	30.4	38	7.9	2	7	292	0.00	30.350 
17:10	30.6	30.6	30.6	38	8.0	2	6	248	0.00	30.350 
17:15	30.3	30.3	30.3	38	7.8	2	4	270	0.00	30.345 
17:20	30.0	30.0	30.0	38	7.5	2	4	270	0.00	30.345 
17:25	30.0	30.0	30.0	38	7.5	2	5	270	0.00	30.345 
17:30	30.0	30.0	30.0	38	7.5	2	4	248	0.00	30.335 
17:35	30.0	30.0	30.0	37	6.9	1	4	248	0.00	30.335 
17:40	29.7	29.7	29.7	36	6.1	2	5	270	0.00	30.335 
17:45	29.5	29.5	29.5	37	6.5	2	5	270	0.00	30.329 
17:50	29.4	29.4	29.4	38	7.0	1	3	248	0.00	30.329 
17:55	29.3	29.3	29.3	38	6.9	1	3	270	0.00	30.329 
18:00	29.1	29.1	29.1	38	6.7	1	3	315	0.00	30.325 
18:05	29.0	29.0	29.0	38	6.6	1	2	292	0.00	30.325 
18:10	28.8	28.8	28.8	39	7.0	1	3	248	0.00	30.325 
18:15	28.7	28.7	28.7	39	6.9	1	3	248	0.00	30.321 
18:20	28.5	28.5	28.5	40	7.3	0	2	315	0.00	30.321 
18:25	28.5	28.5	28.5	40	7.3	0	2	315	0.00	30.321 
18:30	28.4	28.4	28.4	41	7.7	1	2	248	0.00	30.320 
18:35	28.4	28.4	28.4	42	8.3	0	2	248	0.00	30.320 
18:40	28.2	28.2	28.2	41	7.6	0	1	270	0.00	30.320 
18:45	28.2	28.2	28.2	42	8.1	0	2	270	0.00	30.319 
18:50	28.1	28.1	28.1	42	8.0	0	2	270	0.00	30.319 
18:55	27.9	27.9	27.9	43	8.3	0	1	270	0.00	30.319 
19:00	27.8	27.8	27.8	43	8.2	0	1	270	0.00	30.316 
19:05	27.6	27.6	27.6	43	8.1	0	1	270	0.00	30.316 
19:10	27.6	27.6	27.6	44	8.6	0	0	---	0.00	30.316 
19:15	27.3	27.3	27.3	45	8.8	0	0	---	0.00	30.313 
19:20	27.3	27.3	27.3	44	8.3	0	1	270	0.00	30.313 
19:25	27.3	27.3	27.3	45	8.8	0	0	---	0.00	30.313 
19:30	27.2	27.2	27.2	44	8.2	0	0	---	0.00	30.309 
19:35	27.2	27.2	27.2	45	8.7	0	0	---	0.00	30.309 
19:40	27.0	27.0	27.0	45	8.5	0	0	---	0.00	30.309 
19:45	26.9	26.9	26.9	45	8.4	0	0	---	0.00	30.306 
19:50	26.7	26.7	26.7	46	8.7	0	0	---	0.00	30.306 
19:55	26.6	26.6	26.6	46	8.6	0	1	270	0.00	30.306 
20:00	26.4	26.4	26.4	46	8.5	0	0	---	0.00	30.303 
20:05	26.1	26.1	26.1	47	8.7	0	0	---	0.00	30.303 
20:10	26.0	26.0	26.0	47	8.6	0	0	---	0.00	30.303 
20:15	25.8	25.8	25.8	46	7.9	0	2	270	0.00	30.297 
20:20	25.8	25.8	25.8	43	6.4	0	0	---	0.00	30.297 
20:25	25.7	25.7	25.7	43	6.3	0	0	---	0.00	30.297 
20:30	25.4	25.4	25.4	43	6.1	0	0	---	0.00	30.288 
20:35	25.3	25.3	25.3	43	6.0	0	0	---	0.00	30.288 
20:40	25.1	25.1	25.1	44	6.3	0	0	---	0.00	30.288 
20:45	24.8	24.8	24.8	43	5.5	0	0	---	0.00	30.285 
20:50	24.7	24.7	24.7	43	5.4	0	0	---	0.00	30.285 
20:55	24.5	24.5	24.5	43	5.2	0	0	---	0.00	30.285 
21:00	24.4	24.4	24.4	42	4.6	0	0	---	0.00	30.280 
21:05	24.2	24.2	24.2	41	3.9	0	0	---	0.00	30.280 
21:10	24.2	24.2	24.2	41	3.9	0	0	---	0.00	30.280 
21:15	24.1	24.1	24.1	42	4.4	0	0	---	0.00	30.270 
21:20	24.1	24.1	24.1	41	3.8	0	0	---	0.00	30.270 
21:25	23.9	23.9	23.9	40	3.1	0	0	---	0.00	30.270 
21:30	23.9	23.9	23.9	41	3.7	0	0	---	0.00	30.268 
21:35	23.9	23.9	23.9	42	4.2	0	0	---	0.00	30.268 
21:40	23.8	23.8	23.8	43	4.6	0	0	---	0.00	30.268 
21:45	23.6	23.6	23.6	41	3.4	0	0	---	0.00	30.265 
21:50	23.6	23.6	23.6	41	3.4	0	0	---	0.00	30.265 
21:55	23.8	23.8	23.8	41	3.6	0	0	---	0.00	30.265 
22:00	23.8	23.8	23.8	41	3.6	0	0	---	0.00	30.265 
22:05	23.9	23.9	23.9	42	4.2	0	0	---	0.00	30.265 
22:10	24.1	24.1	24.1	42	4.4	0	0	---	0.00	30.265 
22:15	24.2	24.2	24.2	41	3.9	0	0	---	0.00	30.260 
22:20	24.2	24.2	24.2	40	3.4	0	0	---	0.00	30.260 
22:25	24.2	24.2	24.2	41	3.9	0	0	---	0.00	30.260 
22:30	24.4	24.4	24.4	44	5.7	0	0	---	0.00	30.258 
22:35	24.4	24.4	24.4	44	5.7	0	0	---	0.00	30.258 
22:40	24.4	24.4	24.4	45	6.1	0	0	---	0.00	30.258 
22:45	24.4	24.4	24.4	46	6.6	0	0	---	0.00	30.250 
22:50	24.4	24.4	24.4	46	6.6	0	0	---	0.00	30.250 
22:55	24.2	24.2	24.2	46	6.4	0	0	---	0.00	30.250 
23:00	24.1	24.1	24.1	47	6.8	0	0	---	0.00	30.249 
23:05	24.1	24.1	24.1	47	6.8	0	0	---	0.00	30.249 
23:10	23.9	23.9	23.9	48	7.1	0	0	---	0.00	30.249 
23:15	23.8	23.8	23.8	49	7.5	0	0	---	0.00	30.244 
23:20	23.8	23.8	23.8	46	6.1	0	0	---	0.00	30.244 
23:25	23.6	23.6	23.6	45	5.4	0	0	---	0.00	30.244 
23:30	23.5	23.5	23.5	46	5.8	0	0	---	0.00	30.237 
23:35	23.2	23.2	23.2	44	4.6	0	0	---	0.00	30.237 
23:40	23.0	23.0	23.0	45	4.9	0	0	---	0.00	30.237 
23:45	23.0	23.0	23.0	44	4.4	0	0	---	0.00	30.232 
23:50	23.0	23.0	23.0	44	4.4	0	0	---	0.00	30.232 
23:55	22.9	22.9	22.9	44	4.3	0	0	---	0.00	30.232 

CoCoRaHS
IN-AL-39
A2 Web Hosting
Creative Commons License
GoDaddy
Look for:

loaded 2017-10-19 14:26:20 • last modified 2010-11-18 10:43:29
Privacy PolicyDisclaimer
• wx.awcolley.com is powered by PmWiki v.2002016 •
• all content (unless otherwise noted) © 2017 A W Colley